KTOI/TOI METAR and TAF weather

Enter ICAO airport designator
Station Type Date Time Source
KTOI METAR 2022/06/28 08:53 UTC NOAA

KTOI 280853Z AUTO 01003KT 10SM CLR 23/20 A3006 RMK AO2 SLP171 T02330200 55003


Station Type Date Time Source
KTOI Decoded METAR 2022/06/28 08:53 UTC NOAA

TROY MUNICIPAL AIRPORT, AL, United States (KTOI) 31-52N 086-01W 118M
Jun 28, 2022 - 04:53 AM EDT / 2022.06.28 0853 UTC
Wind: from the N (010 degrees) at 3 MPH (3 KT):0
Visibility: 10 mile(s):0
Sky conditions: clear
Temperature: 73.9 F (23.3 C)
Dew Point: 68.0 F (20.0 C)
Relative Humidity: 81%
Pressure (altimeter): 30.06 in. Hg (1017 hPa)
Pressure tendency: 0.01 inches (0.3 hPa) lower than three hours ago
ob: KTOI 280853Z AUTO 01003KT 10SM CLR 23/20 A3006 RMK AO2 SLP171 T02330200 55003
cycle: 9

Station Type Date Time Source
KTOI TAF 2022/06/28 06:22 UTC NOAA

TAF KTOI 280520Z 2806/2906 35004KT P6SM BKN200
FM281500 10005KT P6SM SCT040 PROB30 2818/2821 4SM TSRA BR BKN035CB
FM282100 VRB03KT 6SM SHRA BR VCTS BKN050CB
FM290000 06004KT P6SM SCT050 OVC100 PROB30 2900/2906 4SM TSRA BR OVC035CB

Example: see airport list